createdAt,value
2018-07-06T00:01:23.435Z,3.33
2018-07-06T00:04:02.821Z,2.30
2018-07-06T00:06:42.527Z,2.60
2018-07-06T00:09:22.134Z,2.20
2018-07-06T00:12:01.773Z,2.50
2018-07-06T00:14:42.765Z,2.53
2018-07-06T00:17:22.354Z,3.00
2018-07-06T00:20:01.906Z,3.10
2018-07-06T00:22:41.496Z,3.17
2018-07-06T00:25:21.069Z,2.70
2018-07-06T00:28:00.792Z,2.53
2018-07-06T00:30:41.661Z,2.43
2018-07-06T00:33:21.539Z,2.73
2018-07-06T00:36:01.286Z,2.37
2018-07-06T00:38:41.020Z,2.40
2018-07-06T00:41:20.706Z,2.27
2018-07-06T00:44:01.524Z,2.50
2018-07-06T00:46:41.287Z,2.20
2018-07-06T00:49:21.001Z,2.00
2018-07-06T00:52:00.632Z,2.50
2018-07-06T00:54:34.355Z,2.00
2018-07-06T00:57:14.040Z,1.93
2018-07-06T00:59:53.642Z,2.30
2018-07-06T01:02:33.252Z,1.40
2018-07-06T01:05:12.986Z,1.80
2018-07-06T01:07:52.544Z,1.47
2018-07-06T01:10:32.237Z,2.00
2018-07-06T01:13:11.892Z,1.60
2018-07-06T01:15:51.562Z,1.90
2018-07-06T01:18:25.230Z,1.70
2018-07-06T01:21:05.028Z,1.97
2018-07-06T01:23:44.850Z,2.23
2018-07-06T01:26:24.488Z,2.60
2018-07-06T01:29:04.132Z,2.60
2018-07-06T01:31:43.814Z,2.70
2018-07-06T01:34:23.826Z,1.97
2018-07-06T01:37:03.722Z,2.80
2018-07-06T01:39:43.178Z,2.17
2018-07-06T01:42:22.826Z,1.70
2018-07-06T01:44:58.066Z,2.50
2018-07-06T01:47:37.950Z,1.77
2018-07-06T01:50:17.625Z,2.67
2018-07-06T01:52:57.273Z,3.50
2018-07-06T01:55:37.068Z,1.97
2018-07-06T01:58:16.824Z,2.87
2018-07-06T02:00:57.654Z,1.70
2018-07-06T02:03:37.421Z,2.00
2018-07-06T02:06:18.337Z,1.40
2018-07-06T02:08:58.766Z,1.60
2018-07-06T02:11:39.673Z,1.37
2018-07-06T02:14:19.171Z,1.70
2018-07-06T02:16:59.001Z,1.50
2018-07-06T02:19:38.701Z,1.70
2018-07-06T02:22:12.511Z,1.43
2018-07-06T02:24:52.107Z,1.30
2018-07-06T02:27:32.219Z,1.10
2018-07-06T02:30:14.591Z,1.53
2018-07-06T02:32:54.366Z,1.20
2018-07-06T02:35:34.382Z,1.50
2018-07-06T02:38:07.895Z,1.27
2018-07-06T02:40:47.420Z,1.10
2018-07-06T02:43:27.195Z,1.70
2018-07-06T02:46:06.877Z,1.40
2018-07-06T02:48:46.636Z,1.93
2018-07-06T02:51:26.236Z,1.30
2018-07-06T02:54:05.837Z,1.10
2018-07-06T02:56:45.550Z,1.37
2018-07-06T02:59:25.091Z,1.10
2018-07-06T03:02:04.732Z,1.33
2018-07-06T03:04:44.423Z,1.30
2018-07-06T03:07:24.113Z,1.50
2018-07-06T03:10:03.875Z,1.40
2018-07-06T03:12:43.871Z,1.20
2018-07-06T03:15:26.049Z,1.60
2018-07-06T03:17:59.622Z,1.70
2018-07-06T03:20:39.384Z,1.50
2018-07-06T03:23:19.040Z,1.40
2018-07-06T03:25:59.755Z,1.50
2018-07-06T03:28:39.727Z,1.30
2018-07-06T03:31:19.276Z,1.20
2018-07-06T03:33:59.352Z,1.10
2018-07-06T03:36:40.731Z,1.30
2018-07-06T03:39:21.105Z,1.40
2018-07-06T03:42:01.827Z,1.43
2018-07-06T03:44:41.427Z,1.30
2018-07-06T03:47:21.081Z,1.17
2018-07-06T03:50:00.663Z,1.00
2018-07-06T03:52:40.427Z,1.10
2018-07-06T03:55:21.792Z,1.00
2018-07-06T03:58:03.506Z,0.90
2018-07-06T04:00:43.626Z,1.10
2018-07-06T04:03:23.469Z,1.13
2018-07-06T04:06:03.415Z,1.40
2018-07-06T04:08:43.155Z,1.20
2018-07-06T04:11:23.033Z,1.53
2018-07-06T04:14:03.837Z,1.33
2018-07-06T04:16:37.851Z,1.10
2018-07-06T04:19:17.412Z,0.90
2018-07-06T04:21:57.043Z,0.97
2018-07-06T04:24:36.658Z,1.00
2018-07-06T04:27:16.538Z,0.90
2018-07-06T04:29:57.102Z,1.27
2018-07-06T04:32:36.929Z,1.40
2018-07-06T04:35:16.590Z,1.93
2018-07-06T04:37:56.438Z,1.20
2018-07-06T04:40:36.255Z,2.77
2018-07-06T04:43:15.989Z,1.57
2018-07-06T04:45:55.825Z,1.67
2018-07-06T04:48:35.640Z,2.30
2018-07-06T04:51:15.270Z,1.20
2018-07-06T04:53:55.490Z,1.20
2018-07-06T04:56:29.194Z,1.40
2018-07-06T04:59:08.894Z,1.40
2018-07-06T05:01:48.951Z,1.70
2018-07-06T05:04:30.178Z,1.30
2018-07-06T05:07:09.889Z,2.17
2018-07-06T05:09:49.602Z,1.50
2018-07-06T05:12:29.401Z,1.50
2018-07-06T05:15:09.053Z,1.70
2018-07-06T05:17:49.914Z,1.20
2018-07-06T05:20:29.488Z,1.20
2018-07-06T05:23:09.350Z,1.50
2018-07-06T05:25:49.259Z,1.27
2018-07-06T05:28:29.550Z,1.10
2018-07-06T05:31:09.292Z,1.20
2018-07-06T05:33:48.931Z,1.57
2018-07-06T05:36:28.459Z,1.30
2018-07-06T05:39:08.311Z,1.60
2018-07-06T05:41:48.000Z,1.70
2018-07-06T05:44:27.836Z,1.67
2018-07-06T05:47:07.587Z,1.57
2018-07-06T05:49:47.313Z,2.17
2018-07-06T05:52:26.975Z,2.20
2018-07-06T05:55:06.765Z,2.00
2018-07-06T05:57:46.585Z,2.00
2018-07-06T06:00:26.755Z,1.73
2018-07-06T06:03:06.385Z,2.20
2018-07-06T06:05:46.482Z,1.93
2018-07-06T06:08:13.726Z,2.43
2018-07-06T06:10:42.113Z,2.40
2018-07-06T06:13:10.235Z,2.40
2018-07-06T06:15:38.553Z,2.30
2018-07-06T06:18:06.939Z,2.13
2018-07-06T06:20:35.335Z,2.57
2018-07-06T06:23:03.575Z,2.27
2018-07-06T06:25:31.716Z,2.20
2018-07-06T06:27:59.898Z,1.93
2018-07-06T06:30:28.010Z,2.70
2018-07-06T06:32:56.163Z,1.73
2018-07-06T06:35:24.750Z,2.30
2018-07-06T06:37:52.886Z,2.40
2018-07-06T06:40:22.294Z,2.17
2018-07-06T06:42:50.526Z,1.93
2018-07-06T06:45:19.456Z,2.00
2018-07-06T06:47:47.407Z,2.30
2018-07-06T06:50:16.046Z,2.33
2018-07-06T06:52:44.225Z,2.30
2018-07-06T06:55:12.446Z,2.30
2018-07-06T06:57:40.626Z,2.17
2018-07-06T07:00:09.106Z,2.30
2018-07-06T07:02:37.237Z,2.27
2018-07-06T07:05:05.355Z,2.73
2018-07-06T07:07:33.924Z,2.17
2018-07-06T07:10:02.048Z,2.13
2018-07-06T07:12:30.230Z,2.07
2018-07-06T07:14:58.343Z,2.10
2018-07-06T07:17:26.699Z,1.97
2018-07-06T07:19:55.655Z,1.90
2018-07-06T07:22:23.920Z,1.90
2018-07-06T07:24:52.086Z,2.47
2018-07-06T07:27:20.507Z,3.40
2018-07-06T07:29:50.552Z,2.40
2018-07-06T07:32:18.824Z,2.10
2018-07-06T07:34:46.930Z,2.20
2018-07-06T07:37:15.339Z,2.90
2018-07-06T07:39:44.223Z,2.33
2018-07-06T07:42:12.500Z,2.70
2018-07-06T07:44:41.801Z,2.73
2018-07-06T07:47:09.986Z,2.80
2018-07-06T07:49:38.931Z,3.20
2018-07-06T07:52:19.290Z,2.53
2018-07-06T07:54:50.843Z,2.93
2018-07-06T07:57:19.327Z,2.23
2018-07-06T07:59:49.198Z,2.43
2018-07-06T08:02:17.518Z,3.00
2018-07-06T08:04:45.998Z,2.20
2018-07-06T08:07:14.130Z,2.03
2018-07-06T08:09:42.952Z,2.70
2018-07-06T08:12:11.672Z,2.73
2018-07-06T08:14:40.496Z,3.30
2018-07-06T08:17:08.767Z,2.50
2018-07-06T08:19:37.145Z,2.70
2018-07-06T08:22:06.435Z,2.40
2018-07-06T08:24:34.621Z,2.63
2018-07-06T08:27:02.833Z,2.80
2018-07-06T08:29:31.091Z,2.50
2018-07-06T08:31:59.471Z,2.47
2018-07-06T08:34:39.215Z,2.60
2018-07-06T08:37:29.337Z,2.60
2018-07-06T08:39:58.338Z,2.20
2018-07-06T08:42:27.957Z,2.60
2018-07-06T08:44:56.902Z,2.50
2018-07-06T08:47:25.442Z,2.43
2018-07-06T08:49:54.438Z,3.10
2018-07-06T08:52:23.831Z,2.50
2018-07-06T08:54:52.619Z,2.70
2018-07-06T08:57:21.773Z,2.50
2018-07-06T08:59:52.127Z,3.07
2018-07-06T09:02:20.463Z,3.20
2018-07-06T09:04:49.505Z,2.70
2018-07-06T09:07:18.253Z,2.43
2018-07-06T09:09:46.589Z,2.70
2018-07-06T09:12:14.763Z,4.80
2018-07-06T09:14:42.844Z,2.77
2018-07-06T09:17:12.693Z,2.57
2018-07-06T09:19:41.310Z,2.47
2018-07-06T09:22:09.503Z,2.70
2018-07-06T09:24:37.645Z,3.07
2018-07-06T09:27:06.989Z,2.33
2018-07-06T09:29:35.283Z,3.00
2018-07-06T09:32:03.579Z,2.87
2018-07-06T09:34:31.697Z,2.93
2018-07-06T09:37:00.525Z,2.70
2018-07-06T09:39:29.755Z,2.77
2018-07-06T09:41:57.961Z,3.90
2018-07-06T09:44:27.278Z,3.50
2018-07-06T09:46:57.836Z,3.17
2018-07-06T09:49:27.705Z,3.50
2018-07-06T09:51:57.821Z,3.13
2018-07-06T09:54:25.936Z,2.73
2018-07-06T09:56:54.284Z,3.10
2018-07-06T09:59:24.420Z,2.67
2018-07-06T10:01:53.200Z,3.30
2018-07-06T10:04:23.316Z,3.00
2018-07-06T10:06:52.275Z,3.40
2018-07-06T10:09:21.582Z,5.37
2018-07-06T10:11:50.450Z,3.60
2018-07-06T10:14:21.046Z,3.40
2018-07-06T10:16:49.151Z,3.27
2018-07-06T10:19:17.330Z,3.90
2018-07-06T10:21:47.907Z,3.20
2018-07-06T10:24:17.040Z,4.00
2018-07-06T10:26:45.424Z,3.63
2018-07-06T10:29:29.213Z,4.07
2018-07-06T10:32:20.226Z,3.73
2018-07-06T10:34:48.762Z,3.40
2018-07-06T10:37:17.644Z,4.23
2018-07-06T10:39:46.200Z,4.20
2018-07-06T10:42:14.492Z,3.70
2018-07-06T10:44:42.676Z,4.70
2018-07-06T10:47:11.484Z,4.17
2018-07-06T10:49:39.582Z,4.47
2018-07-06T10:52:08.506Z,4.13
2018-07-06T10:54:37.763Z,4.80
2018-07-06T10:57:06.252Z,4.40
2018-07-06T10:59:34.450Z,5.23
2018-07-06T11:02:05.567Z,5.47
2018-07-06T11:04:33.856Z,6.33
2018-07-06T11:07:01.970Z,5.50
2018-07-06T11:09:30.121Z,5.30
2018-07-06T11:11:58.314Z,6.23
2018-07-06T11:14:26.633Z,6.17
2018-07-06T11:16:54.829Z,5.53
2018-07-06T11:19:23.633Z,5.83
2018-07-06T11:21:52.795Z,6.17
2018-07-06T11:24:22.003Z,5.83
2018-07-06T11:26:50.620Z,5.90
2018-07-06T11:29:18.818Z,5.70
2018-07-06T11:31:47.034Z,5.90
2018-07-06T11:34:15.352Z,5.43
2018-07-06T11:36:43.478Z,5.67
2018-07-06T11:39:13.274Z,5.20
2018-07-06T11:41:41.715Z,4.97
2018-07-06T11:44:09.798Z,5.47
2018-07-06T11:46:38.076Z,5.03
2018-07-06T11:49:06.276Z,5.73
2018-07-06T11:51:34.497Z,5.43
2018-07-06T11:54:02.647Z,4.77
2018-07-06T11:56:31.733Z,6.33
2018-07-06T11:58:59.910Z,4.60
2018-07-06T12:01:28.249Z,4.40
2018-07-06T12:03:56.511Z,4.50
2018-07-06T12:06:24.600Z,3.70
2018-07-06T12:08:52.944Z,3.73
2018-07-06T12:11:21.081Z,3.60
2018-07-06T12:13:49.329Z,3.53
2018-07-06T12:16:19.767Z,4.00
2018-07-06T12:18:47.956Z,3.60
2018-07-06T12:21:16.207Z,3.60
2018-07-06T12:23:44.474Z,3.90
2018-07-06T12:26:12.639Z,4.63
2018-07-06T12:28:42.341Z,3.60
2018-07-06T12:31:10.482Z,2.90
2018-07-06T12:33:38.676Z,3.20
2018-07-06T12:36:07.847Z,3.47
2018-07-06T12:38:36.052Z,3.70
2018-07-06T12:41:04.509Z,3.43
2018-07-06T12:43:32.665Z,3.50
2018-07-06T12:46:00.823Z,3.30
2018-07-06T12:48:29.083Z,3.47
2018-07-06T12:50:57.321Z,3.13
2018-07-06T12:53:26.806Z,3.50
2018-07-06T12:55:54.903Z,3.80
2018-07-06T12:58:23.058Z,2.83
2018-07-06T13:00:51.152Z,3.10
2018-07-06T13:03:19.246Z,2.87
2018-07-06T13:05:51.384Z,2.83
2018-07-06T13:08:19.530Z,2.80
2018-07-06T13:10:47.638Z,3.20
2018-07-06T13:13:15.808Z,3.00
2018-07-06T13:15:43.906Z,2.67
2018-07-06T13:18:12.032Z,2.40
2018-07-06T13:20:40.202Z,2.77
2018-07-06T13:23:08.316Z,2.43
2018-07-06T13:25:36.444Z,1.67
2018-07-06T13:28:04.790Z,4.20
2018-07-06T13:30:32.891Z,1.73
2018-07-06T13:33:00.989Z,1.83
2018-07-06T13:35:30.048Z,2.00
2018-07-06T13:37:58.119Z,2.03
2018-07-06T13:40:26.270Z,1.53
2018-07-06T13:42:54.505Z,2.10
2018-07-06T13:45:24.260Z,2.20
2018-07-06T13:47:53.126Z,2.10
2018-07-06T13:50:21.350Z,2.17
2018-07-06T13:52:49.475Z,1.50
2018-07-06T13:55:18.232Z,1.90
2018-07-06T13:57:46.546Z,1.40
2018-07-06T14:00:14.801Z,1.57
2018-07-06T14:02:42.927Z,1.60
2018-07-06T14:05:11.167Z,1.87
2018-07-06T14:07:39.521Z,1.50
2018-07-06T14:10:11.200Z,2.00
2018-07-06T14:12:39.994Z,1.77
2018-07-06T14:15:08.160Z,1.90
2018-07-06T14:17:36.299Z,1.90
2018-07-06T14:20:04.716Z,2.40
2018-07-06T14:22:32.835Z,1.80
2018-07-06T14:25:01.028Z,1.90
2018-07-06T14:27:29.186Z,1.60
2018-07-06T14:29:57.357Z,1.70
2018-07-06T14:32:26.118Z,1.80
2018-07-06T14:34:54.275Z,1.80
2018-07-06T14:37:23.196Z,1.63
2018-07-06T14:39:51.540Z,1.70
2018-07-06T14:42:19.755Z,1.50
2018-07-06T14:44:48.104Z,2.23
2018-07-06T14:47:16.409Z,1.83
2018-07-06T14:49:44.510Z,1.70
2018-07-06T14:52:12.694Z,1.43
2018-07-06T14:54:40.955Z,1.50
2018-07-06T14:57:09.203Z,1.93
2018-07-06T14:59:39.117Z,1.50
2018-07-06T15:02:07.302Z,1.70
2018-07-06T15:04:35.417Z,1.40
2018-07-06T15:07:03.541Z,1.40
2018-07-06T15:09:32.473Z,1.70
2018-07-06T15:12:00.703Z,1.57
2018-07-06T15:14:29.329Z,1.67
2018-07-06T15:16:57.661Z,1.60
2018-07-06T15:19:26.013Z,1.50
2018-07-06T15:21:56.341Z,1.80
2018-07-06T15:24:24.952Z,1.20
2018-07-06T15:26:53.358Z,1.63
2018-07-06T15:29:21.976Z,1.20
2018-07-06T15:31:51.735Z,1.27
2018-07-06T15:34:19.900Z,1.53
2018-07-06T15:36:48.053Z,1.50
2018-07-06T15:39:16.732Z,1.50
2018-07-06T15:41:46.155Z,1.20
2018-07-06T15:44:14.347Z,1.73
2018-07-06T15:46:42.461Z,2.23
2018-07-06T15:49:11.220Z,2.23
2018-07-06T15:51:40.197Z,1.53
2018-07-06T15:54:08.605Z,2.50
2018-07-06T15:56:36.721Z,1.60
2018-07-06T15:59:06.443Z,1.60
2018-07-06T16:01:35.610Z,2.40
2018-07-06T16:04:04.286Z,2.83
2018-07-06T16:06:33.651Z,2.17
2018-07-06T16:09:01.735Z,1.70
2018-07-06T16:11:29.902Z,1.40
2018-07-06T16:13:58.262Z,1.53
2018-07-06T16:16:26.388Z,1.87
2018-07-06T16:18:54.319Z,1.90
2018-07-06T16:21:22.462Z,2.77
2018-07-06T16:23:50.580Z,1.50
2018-07-06T16:26:18.765Z,1.70
2018-07-06T16:28:46.876Z,1.90
2018-07-06T16:31:15.099Z,1.60
2018-07-06T16:33:43.399Z,3.03
2018-07-06T16:36:11.635Z,2.20
2018-07-06T16:38:39.825Z,1.93
2018-07-06T16:41:08.385Z,1.90
2018-07-06T16:43:36.541Z,2.43
2018-07-06T16:46:04.739Z,2.00
2018-07-06T16:48:34.694Z,2.07
2018-07-06T16:51:02.887Z,2.10
2018-07-06T16:53:31.041Z,2.10
2018-07-06T16:56:00.544Z,1.80
2018-07-06T16:58:28.793Z,1.43
2018-07-06T17:00:57.063Z,2.23
2018-07-06T17:03:25.185Z,2.47
2018-07-06T17:05:53.387Z,2.10
2018-07-06T17:08:21.694Z,1.63
2018-07-06T17:10:49.976Z,1.70
2018-07-06T17:13:18.063Z,2.00
2018-07-06T17:15:45.981Z,1.73
2018-07-06T17:18:14.084Z,2.03
2018-07-06T17:20:42.203Z,2.50
2018-07-06T17:23:10.452Z,1.93
2018-07-06T17:25:38.594Z,2.80
2018-07-06T17:28:07.074Z,1.83
2018-07-06T17:30:35.180Z,2.40
2018-07-06T17:33:03.343Z,1.80
2018-07-06T17:35:31.592Z,2.10
2018-07-06T17:37:59.976Z,2.30
2018-07-06T17:40:28.204Z,2.30
2018-07-06T17:42:56.246Z,1.70
2018-07-06T17:45:24.408Z,2.20
2018-07-06T17:47:52.550Z,1.77
2018-07-06T17:50:20.745Z,2.17
2018-07-06T17:52:49.000Z,2.27
2018-07-06T17:55:17.198Z,2.20
2018-07-06T17:57:45.324Z,2.77
2018-07-06T18:00:13.519Z,2.60
2018-07-06T18:02:41.722Z,2.63
2018-07-06T18:05:09.676Z,2.20
2018-07-06T18:07:37.814Z,1.80
2018-07-06T18:10:06.133Z,1.80
2018-07-06T18:12:34.252Z,1.90
2018-07-06T18:15:03.912Z,2.00
2018-07-06T18:17:32.547Z,2.10
2018-07-06T18:20:00.721Z,1.90
2018-07-06T18:22:29.020Z,1.87
2018-07-06T18:24:57.790Z,1.80
2018-07-06T18:27:25.708Z,1.30
2018-07-06T18:29:53.976Z,1.70
2018-07-06T18:32:22.129Z,1.50
2018-07-06T18:34:51.208Z,1.13
2018-07-06T18:37:19.352Z,1.23
2018-07-06T18:39:47.486Z,2.10
2018-07-06T18:42:15.442Z,1.80
2018-07-06T18:44:44.744Z,2.10
2018-07-06T18:47:12.864Z,1.40
2018-07-06T18:49:41.034Z,2.10
2018-07-06T18:52:09.140Z,2.10
2018-07-06T18:54:37.531Z,2.03
2018-07-06T18:57:05.620Z,2.10
2018-07-06T18:59:34.033Z,2.50
2018-07-06T19:02:02.242Z,2.00
2018-07-06T19:04:30.454Z,1.97
2018-07-06T19:06:58.898Z,1.87
2018-07-06T19:09:27.029Z,2.10
2018-07-06T19:11:55.283Z,1.50
2018-07-06T19:14:23.418Z,2.60
2018-07-06T19:16:51.629Z,1.40
2018-07-06T19:19:20.019Z,1.20
2018-07-06T19:21:48.160Z,1.30
2018-07-06T19:24:16.279Z,2.03
2018-07-06T19:26:44.610Z,2.60
2018-07-06T19:29:12.583Z,2.43
2018-07-06T19:31:40.512Z,1.73
2018-07-06T19:34:08.660Z,1.63
2018-07-06T19:36:38.029Z,1.33
2018-07-06T19:39:06.387Z,1.60
2018-07-06T19:41:34.676Z,1.87
2018-07-06T19:44:04.513Z,2.50
2018-07-06T19:46:32.692Z,1.30
2018-07-06T19:49:07.415Z,2.10
2018-07-06T19:51:35.745Z,1.60
2018-07-06T19:54:03.859Z,1.47
2018-07-06T19:56:32.053Z,2.10
2018-07-06T19:59:00.979Z,1.60
2018-07-06T20:01:29.214Z,1.90
2018-07-06T20:03:58.421Z,1.90
2018-07-06T20:06:28.167Z,2.03
2018-07-06T20:08:56.119Z,1.20
2018-07-06T20:11:25.627Z,1.10
2018-07-06T20:13:54.017Z,3.03
2018-07-06T20:16:22.217Z,1.97
2018-07-06T20:18:50.364Z,4.27
2018-07-06T20:21:18.663Z,5.27
2018-07-06T20:23:46.830Z,4.50
2018-07-06T20:26:15.005Z,2.43
2018-07-06T20:28:43.147Z,2.47
2018-07-06T20:31:11.260Z,1.77
2018-07-06T20:33:39.360Z,2.10
2018-07-06T20:36:07.470Z,1.27
2018-07-06T20:38:36.554Z,1.87
2018-07-06T20:41:04.722Z,1.37
2018-07-06T20:43:33.067Z,1.97
2018-07-06T20:46:01.188Z,1.53
2018-07-06T20:48:29.333Z,1.37
2018-07-06T20:50:57.795Z,1.97
2018-07-06T20:53:26.108Z,1.30
2018-07-06T20:55:54.020Z,1.20
2018-07-06T20:58:22.234Z,1.40
2018-07-06T21:00:50.350Z,1.40
2018-07-06T21:03:19.358Z,2.10
2018-07-06T21:05:47.492Z,1.30
2018-07-06T21:08:15.743Z,1.40
2018-07-06T21:10:43.850Z,1.20
2018-07-06T21:13:11.998Z,1.43
2018-07-06T21:15:40.200Z,2.10
2018-07-06T21:18:09.294Z,1.40
2018-07-06T21:20:37.459Z,1.70
2018-07-06T21:23:05.780Z,1.20
2018-07-06T21:25:33.910Z,1.80
2018-07-06T21:28:02.162Z,1.40
2018-07-06T21:30:30.542Z,1.30
2018-07-06T21:32:58.779Z,1.40
2018-07-06T21:35:27.197Z,1.53
2018-07-06T21:37:55.397Z,1.30
2018-07-06T21:40:23.639Z,2.00
2018-07-06T21:42:52.028Z,0.93
2018-07-06T21:45:20.260Z,1.53
2018-07-06T21:47:48.518Z,1.43
2018-07-06T21:50:17.448Z,1.60
2018-07-06T21:52:45.748Z,1.30
2018-07-06T21:55:15.150Z,1.37
2018-07-06T21:57:43.394Z,1.63
2018-07-06T22:00:11.923Z,1.50
2018-07-06T22:02:40.138Z,1.03
2018-07-06T22:05:08.449Z,1.33
2018-07-06T22:07:36.773Z,1.40
2018-07-06T22:10:05.103Z,1.37
2018-07-06T22:12:33.389Z,1.40
2018-07-06T22:15:01.535Z,1.50
2018-07-06T22:17:29.702Z,1.33
2018-07-06T22:19:57.890Z,1.47
2018-07-06T22:22:26.296Z,1.70
2018-07-06T22:24:54.550Z,1.57
2018-07-06T22:27:22.650Z,1.20
2018-07-06T22:29:50.842Z,1.50
2018-07-06T22:32:19.242Z,1.37
2018-07-06T22:34:48.012Z,1.37
2018-07-06T22:37:16.287Z,1.30
2018-07-06T22:39:44.569Z,1.60
2018-07-06T22:42:12.806Z,1.33
2018-07-06T22:44:40.974Z,1.13
2018-07-06T22:47:10.217Z,1.00
2018-07-06T22:49:38.424Z,1.83
2018-07-06T22:52:06.850Z,4.33
2018-07-06T22:54:36.408Z,1.87
2018-07-06T22:57:04.574Z,1.80
2018-07-06T22:59:32.683Z,1.33
2018-07-06T23:02:00.875Z,1.00
2018-07-06T23:04:29.051Z,1.87
2018-07-06T23:06:57.247Z,2.50
2018-07-06T23:09:26.019Z,2.37
2018-07-06T23:11:54.621Z,1.73
2018-07-06T23:14:22.955Z,1.30
2018-07-06T23:16:51.079Z,1.20
2018-07-06T23:19:19.365Z,1.10
2018-07-06T23:21:47.580Z,1.90
2018-07-06T23:24:15.736Z,2.13
2018-07-06T23:26:45.206Z,1.57
2018-07-06T23:29:13.391Z,1.40
2018-07-06T23:31:41.538Z,1.97
2018-07-06T23:34:10.144Z,1.73
2018-07-06T23:36:38.764Z,0.93
2018-07-06T23:39:08.527Z,1.33
2018-07-06T23:41:36.677Z,1.73
2018-07-06T23:44:04.795Z,1.20
2018-07-06T23:46:32.971Z,1.73
2018-07-06T23:49:01.263Z,1.80
2018-07-06T23:51:29.689Z,0.90
2018-07-06T23:53:59.306Z,1.60
2018-07-06T23:56:27.231Z,1.63
2018-07-06T23:58:55.333Z,1.40
